sensor_id;sensor_type;location;lat;lon;timestamp;P1;durP1;ratioP1;P2;durP2;ratioP2
6999;SDS011;3540;53.242;10.408;2023-04-03T00:01:30;8.33;;;2.47;;
6999;SDS011;3540;53.242;10.408;2023-04-03T00:03:55;8.33;;;2.50;;
6999;SDS011;3540;53.242;10.408;2023-04-03T00:06:21;6.67;;;2.10;;
6999;SDS011;3540;53.242;10.408;2023-04-03T00:08:48;9.67;;;2.70;;
6999;SDS011;3540;53.242;10.408;2023-04-03T00:11:14;10.83;;;2.87;;
6999;SDS011;3540;53.242;10.408;2023-04-03T00:13:40;11.93;;;2.40;;
6999;SDS011;3540;53.242;10.408;2023-04-03T00:16:06;9.00;;;2.70;;
6999;SDS011;3540;53.242;10.408;2023-04-03T00:18:33;8.40;;;2.60;;
6999;SDS011;3540;53.242;10.408;2023-04-03T00:20:58;6.47;;;2.40;;
6999;SDS011;3540;53.242;10.408;2023-04-03T00:23:24;9.53;;;2.70;;
6999;SDS011;3540;53.242;10.408;2023-04-03T00:25:50;9.17;;;2.50;;
6999;SDS011;3540;53.242;10.408;2023-04-03T00:28:17;8.03;;;2.50;;
6999;SDS011;3540;53.242;10.408;2023-04-03T00:30:43;8.37;;;3.00;;
6999;SDS011;3540;53.242;10.408;2023-04-03T00:33:10;8.27;;;2.73;;
6999;SDS011;3540;53.242;10.408;2023-04-03T00:35:37;6.80;;;2.60;;
6999;SDS011;3540;53.242;10.408;2023-04-03T00:38:03;7.83;;;2.57;;
6999;SDS011;3540;53.242;10.408;2023-04-03T00:40:32;9.00;;;2.43;;
6999;SDS011;3540;53.242;10.408;2023-04-03T00:43:00;11.20;;;2.60;;
6999;SDS011;3540;53.242;10.408;2023-04-03T00:45:39;8.47;;;2.60;;
6999;SDS011;3540;53.242;10.408;2023-04-03T00:48:06;10.20;;;2.70;;
6999;SDS011;3540;53.242;10.408;2023-04-03T00:50:37;9.07;;;2.20;;
6999;SDS011;3540;53.242;10.408;2023-04-03T00:53:05;6.13;;;2.20;;
6999;SDS011;3540;53.242;10.408;2023-04-03T00:55:32;8.07;;;2.70;;
6999;SDS011;3540;53.242;10.408;2023-04-03T00:58:00;8.03;;;2.40;;
6999;SDS011;3540;53.242;10.408;2023-04-03T01:00:27;8.17;;;2.20;;
6999;SDS011;3540;53.242;10.408;2023-04-03T01:02:53;5.77;;;2.30;;
6999;SDS011;3540;53.242;10.408;2023-04-03T01:05:19;9.77;;;2.60;;
6999;SDS011;3540;53.242;10.408;2023-04-03T01:07:46;6.97;;;2.70;;
6999;SDS011;3540;53.242;10.408;2023-04-03T01:10:13;5.20;;;2.37;;
6999;SDS011;3540;53.242;10.408;2023-04-03T01:12:41;10.57;;;2.77;;
6999;SDS011;3540;53.242;10.408;2023-04-03T01:15:13;5.20;;;2.03;;
6999;SDS011;3540;53.242;10.408;2023-04-03T01:17:54;6.07;;;2.40;;
6999;SDS011;3540;53.242;10.408;2023-04-03T01:23:04;7.97;;;2.83;;
6999;SDS011;3540;53.242;10.408;2023-04-03T01:25:47;8.00;;;3.07;;
6999;SDS011;3540;53.242;10.408;2023-04-03T01:28:34;7.20;;;2.53;;
6999;SDS011;3540;53.242;10.408;2023-04-03T01:33:43;9.73;;;2.40;;
6999;SDS011;3540;53.242;10.408;2023-04-03T01:36:10;7.93;;;2.50;;
6999;SDS011;3540;53.242;10.408;2023-04-03T01:38:42;8.13;;;2.50;;
6999;SDS011;3540;53.242;10.408;2023-04-03T01:41:07;11.40;;;2.50;;
6999;SDS011;3540;53.242;10.408;2023-04-03T01:43:33;5.23;;;2.33;;
6999;SDS011;3540;53.242;10.408;2023-04-03T01:45:59;10.33;;;2.60;;
6999;SDS011;3540;53.242;10.408;2023-04-03T01:48:24;7.87;;;2.83;;
6999;SDS011;3540;53.242;10.408;2023-04-03T01:50:50;10.83;;;2.90;;
6999;SDS011;3540;53.242;10.408;2023-04-03T01:53:16;10.93;;;2.77;;
6999;SDS011;3540;53.242;10.408;2023-04-03T01:55:41;8.73;;;2.90;;
6999;SDS011;3540;53.242;10.408;2023-04-03T01:58:07;9.00;;;2.20;;
6999;SDS011;3540;53.242;10.408;2023-04-03T02:00:33;10.27;;;2.70;;
6999;SDS011;3540;53.242;10.408;2023-04-03T02:02:58;9.87;;;2.73;;
6999;SDS011;3540;53.242;10.408;2023-04-03T02:05:24;9.67;;;2.50;;
6999;SDS011;3540;53.242;10.408;2023-04-03T02:07:50;9.90;;;2.93;;
6999;SDS011;3540;53.242;10.408;2023-04-03T02:10:15;7.53;;;2.90;;
6999;SDS011;3540;53.242;10.408;2023-04-03T02:12:41;12.93;;;2.93;;
6999;SDS011;3540;53.242;10.408;2023-04-03T02:15:07;9.33;;;2.70;;
6999;SDS011;3540;53.242;10.408;2023-04-03T02:17:32;8.70;;;3.00;;
6999;SDS011;3540;53.242;10.408;2023-04-03T02:19:59;9.97;;;3.10;;
6999;SDS011;3540;53.242;10.408;2023-04-03T02:22:25;7.57;;;2.93;;
6999;SDS011;3540;53.242;10.408;2023-04-03T02:24:50;10.63;;;2.90;;
6999;SDS011;3540;53.242;10.408;2023-04-03T02:27:16;5.50;;;2.83;;
6999;SDS011;3540;53.242;10.408;2023-04-03T02:29:42;15.73;;;3.07;;
6999;SDS011;3540;53.242;10.408;2023-04-03T02:32:08;9.37;;;3.10;;
6999;SDS011;3540;53.242;10.408;2023-04-03T02:34:33;11.80;;;3.40;;
6999;SDS011;3540;53.242;10.408;2023-04-03T02:36:59;6.23;;;3.00;;
6999;SDS011;3540;53.242;10.408;2023-04-03T02:39:25;11.17;;;3.50;;
6999;SDS011;3540;53.242;10.408;2023-04-03T02:41:51;8.17;;;3.50;;
6999;SDS011;3540;53.242;10.408;2023-04-03T02:44:16;7.50;;;3.17;;
6999;SDS011;3540;53.242;10.408;2023-04-03T02:46:42;8.90;;;3.27;;
6999;SDS011;3540;53.242;10.408;2023-04-03T02:49:08;7.83;;;3.37;;
6999;SDS011;3540;53.242;10.408;2023-04-03T02:51:34;5.93;;;3.10;;
6999;SDS011;3540;53.242;10.408;2023-04-03T02:53:59;10.87;;;3.50;;
6999;SDS011;3540;53.242;10.408;2023-04-03T02:56:25;5.77;;;2.80;;
6999;SDS011;3540;53.242;10.408;2023-04-03T02:58:51;7.23;;;3.00;;
6999;SDS011;3540;53.242;10.408;2023-04-03T03:01:17;12.40;;;3.70;;
6999;SDS011;3540;53.242;10.408;2023-04-03T03:03:43;8.63;;;3.33;;
6999;SDS011;3540;53.242;10.408;2023-04-03T03:06:10;11.83;;;3.17;;
6999;SDS011;3540;53.242;10.408;2023-04-03T03:08:42;8.23;;;2.90;;
6999;SDS011;3540;53.242;10.408;2023-04-03T03:11:09;8.70;;;3.00;;
6999;SDS011;3540;53.242;10.408;2023-04-03T03:13:35;8.80;;;3.30;;
6999;SDS011;3540;53.242;10.408;2023-04-03T03:16:02;8.73;;;2.97;;
6999;SDS011;3540;53.242;10.408;2023-04-03T03:18:27;8.00;;;3.13;;
6999;SDS011;3540;53.242;10.408;2023-04-03T03:20:55;8.73;;;3.07;;
6999;SDS011;3540;53.242;10.408;2023-04-03T03:23:21;7.23;;;2.97;;
6999;SDS011;3540;53.242;10.408;2023-04-03T03:25:48;9.13;;;3.17;;
6999;SDS011;3540;53.242;10.408;2023-04-03T03:28:14;6.60;;;3.20;;
6999;SDS011;3540;53.242;10.408;2023-04-03T03:30:40;8.57;;;3.17;;
6999;SDS011;3540;53.242;10.408;2023-04-03T03:33:05;8.80;;;3.50;;
6999;SDS011;3540;53.242;10.408;2023-04-03T03:35:31;9.77;;;3.20;;
6999;SDS011;3540;53.242;10.408;2023-04-03T03:37:57;9.40;;;3.23;;
6999;SDS011;3540;53.242;10.408;2023-04-03T03:40:22;9.87;;;3.50;;
6999;SDS011;3540;53.242;10.408;2023-04-03T03:42:48;10.13;;;2.63;;
6999;SDS011;3540;53.242;10.408;2023-04-03T03:45:14;10.30;;;3.43;;
6999;SDS011;3540;53.242;10.408;2023-04-03T03:47:39;8.53;;;3.20;;
6999;SDS011;3540;53.242;10.408;2023-04-03T03:50:05;11.13;;;3.43;;
6999;SDS011;3540;53.242;10.408;2023-04-03T03:52:31;10.50;;;3.33;;
6999;SDS011;3540;53.242;10.408;2023-04-03T03:54:57;10.20;;;3.13;;
6999;SDS011;3540;53.242;10.408;2023-04-03T03:57:22;7.53;;;3.10;;
6999;SDS011;3540;53.242;10.408;2023-04-03T03:59:48;6.23;;;3.10;;
6999;SDS011;3540;53.242;10.408;2023-04-03T04:02:15;7.50;;;3.40;;
6999;SDS011;3540;53.242;10.408;2023-04-03T04:04:41;8.67;;;3.43;;
6999;SDS011;3540;53.242;10.408;2023-04-03T04:07:06;7.23;;;3.37;;
6999;SDS011;3540;53.242;10.408;2023-04-03T04:09:32;10.13;;;3.33;;
6999;SDS011;3540;53.242;10.408;2023-04-03T04:11:58;7.43;;;3.00;;
6999;SDS011;3540;53.242;10.408;2023-04-03T04:14:23;12.93;;;3.60;;
6999;SDS011;3540;53.242;10.408;2023-04-03T04:16:49;9.33;;;3.33;;
6999;SDS011;3540;53.242;10.408;2023-04-03T04:19:15;7.23;;;3.37;;
6999;SDS011;3540;53.242;10.408;2023-04-03T04:21:40;17.03;;;3.57;;
6999;SDS011;3540;53.242;10.408;2023-04-03T04:24:06;9.40;;;3.10;;
6999;SDS011;3540;53.242;10.408;2023-04-03T04:26:33;11.40;;;3.17;;
6999;SDS011;3540;53.242;10.408;2023-04-03T04:28:59;12.20;;;3.43;;
6999;SDS011;3540;53.242;10.408;2023-04-03T04:31:25;12.80;;;3.33;;
6999;SDS011;3540;53.242;10.408;2023-04-03T04:33:50;12.90;;;3.27;;
6999;SDS011;3540;53.242;10.408;2023-04-03T04:36:16;10.93;;;3.40;;
6999;SDS011;3540;53.242;10.408;2023-04-03T04:38:42;13.17;;;3.33;;
6999;SDS011;3540;53.242;10.408;2023-04-03T04:41:07;10.67;;;3.87;;
6999;SDS011;3540;53.242;10.408;2023-04-03T04:43:33;10.97;;;4.03;;
6999;SDS011;3540;53.242;10.408;2023-04-03T04:48:31;12.33;;;3.80;;
6999;SDS011;3540;53.242;10.408;2023-04-03T04:50:58;6.87;;;3.73;;
6999;SDS011;3540;53.242;10.408;2023-04-03T04:53:23;10.40;;;3.63;;
6999;SDS011;3540;53.242;10.408;2023-04-03T04:55:49;10.87;;;3.80;;
6999;SDS011;3540;53.242;10.408;2023-04-03T04:58:15;9.80;;;3.83;;
6999;SDS011;3540;53.242;10.408;2023-04-03T05:00:41;9.13;;;3.73;;
6999;SDS011;3540;53.242;10.408;2023-04-03T05:03:06;9.17;;;3.40;;
6999;SDS011;3540;53.242;10.408;2023-04-03T05:05:32;11.37;;;4.10;;
6999;SDS011;3540;53.242;10.408;2023-04-03T05:07:58;12.13;;;3.47;;
6999;SDS011;3540;53.242;10.408;2023-04-03T05:10:23;9.87;;;3.37;;
6999;SDS011;3540;53.242;10.408;2023-04-03T05:12:49;10.70;;;3.50;;
6999;SDS011;3540;53.242;10.408;2023-04-03T05:15:15;7.73;;;3.50;;
6999;SDS011;3540;53.242;10.408;2023-04-03T05:17:40;13.07;;;3.90;;
6999;SDS011;3540;53.242;10.408;2023-04-03T05:20:06;11.07;;;4.03;;
6999;SDS011;3540;53.242;10.408;2023-04-03T05:22:32;12.63;;;3.67;;
6999;SDS011;3540;53.242;10.408;2023-04-03T05:24:58;12.23;;;3.37;;
6999;SDS011;3540;53.242;10.408;2023-04-03T05:27:23;11.27;;;3.60;;
6999;SDS011;3540;53.242;10.408;2023-04-03T05:29:49;7.03;;;3.20;;
6999;SDS011;3540;53.242;10.408;2023-04-03T05:32:15;12.97;;;3.70;;
6999;SDS011;3540;53.242;10.408;2023-04-03T05:34:41;11.73;;;3.63;;
6999;SDS011;3540;53.242;10.408;2023-04-03T05:37:07;16.03;;;3.40;;
6999;SDS011;3540;53.242;10.408;2023-04-03T05:39:33;9.33;;;3.23;;
6999;SDS011;3540;53.242;10.408;2023-04-03T05:41:58;14.13;;;3.57;;
6999;SDS011;3540;53.242;10.408;2023-04-03T05:44:25;9.23;;;3.50;;
6999;SDS011;3540;53.242;10.408;2023-04-03T05:46:50;13.83;;;3.80;;
6999;SDS011;3540;53.242;10.408;2023-04-03T05:49:16;11.00;;;3.73;;
6999;SDS011;3540;53.242;10.408;2023-04-03T05:51:42;8.10;;;3.40;;
6999;SDS011;3540;53.242;10.408;2023-04-03T05:54:12;14.93;;;4.03;;
6999;SDS011;3540;53.242;10.408;2023-04-03T05:56:41;10.87;;;4.00;;
6999;SDS011;3540;53.242;10.408;2023-04-03T05:59:06;6.17;;;3.30;;
6999;SDS011;3540;53.242;10.408;2023-04-03T06:01:32;10.17;;;3.87;;
6999;SDS011;3540;53.242;10.408;2023-04-03T06:03:59;10.20;;;4.07;;
6999;SDS011;3540;53.242;10.408;2023-04-03T06:06:25;7.93;;;2.97;;
6999;SDS011;3540;53.242;10.408;2023-04-03T06:08:51;11.20;;;3.30;;
6999;SDS011;3540;53.242;10.408;2023-04-03T06:11:17;9.33;;;3.67;;
6999;SDS011;3540;53.242;10.408;2023-04-03T06:13:42;7.27;;;3.60;;
6999;SDS011;3540;53.242;10.408;2023-04-03T06:16:10;13.70;;;3.83;;
6999;SDS011;3540;53.242;10.408;2023-04-03T06:18:40;9.40;;;3.40;;
6999;SDS011;3540;53.242;10.408;2023-04-03T06:21:06;10.43;;;3.30;;
6999;SDS011;3540;53.242;10.408;2023-04-03T06:23:32;7.97;;;3.20;;
6999;SDS011;3540;53.242;10.408;2023-04-03T06:25:58;9.27;;;3.17;;
6999;SDS011;3540;53.242;10.408;2023-04-03T06:28:24;7.47;;;3.13;;
6999;SDS011;3540;53.242;10.408;2023-04-03T06:30:50;10.43;;;3.43;;
6999;SDS011;3540;53.242;10.408;2023-04-03T06:33:15;6.00;;;2.67;;
6999;SDS011;3540;53.242;10.408;2023-04-03T06:35:41;7.20;;;2.93;;
6999;SDS011;3540;53.242;10.408;2023-04-03T06:38:07;7.17;;;2.73;;
6999;SDS011;3540;53.242;10.408;2023-04-03T06:40:34;9.47;;;2.47;;
6999;SDS011;3540;53.242;10.408;2023-04-03T06:43:00;9.63;;;2.80;;
6999;SDS011;3540;53.242;10.408;2023-04-03T06:45:26;7.23;;;2.40;;
6999;SDS011;3540;53.242;10.408;2023-04-03T06:47:52;7.63;;;2.60;;
6999;SDS011;3540;53.242;10.408;2023-04-03T06:50:18;6.93;;;3.00;;
6999;SDS011;3540;53.242;10.408;2023-04-03T06:52:44;8.87;;;2.90;;
6999;SDS011;3540;53.242;10.408;2023-04-03T06:55:10;5.53;;;2.03;;
6999;SDS011;3540;53.242;10.408;2023-04-03T06:57:36;7.07;;;2.60;;
6999;SDS011;3540;53.242;10.408;2023-04-03T07:00:03;6.30;;;2.40;;
6999;SDS011;3540;53.242;10.408;2023-04-03T07:02:30;9.77;;;2.50;;
6999;SDS011;3540;53.242;10.408;2023-04-03T07:04:56;9.30;;;2.40;;
6999;SDS011;3540;53.242;10.408;2023-04-03T07:07:22;9.10;;;2.33;;
6999;SDS011;3540;53.242;10.408;2023-04-03T07:09:47;5.67;;;2.03;;
6999;SDS011;3540;53.242;10.408;2023-04-03T07:12:14;9.97;;;2.07;;
6999;SDS011;3540;53.242;10.408;2023-04-03T07:14:40;11.80;;;2.27;;
6999;SDS011;3540;53.242;10.408;2023-04-03T07:17:06;5.57;;;1.90;;
6999;SDS011;3540;53.242;10.408;2023-04-03T07:19:32;5.93;;;2.30;;
6999;SDS011;3540;53.242;10.408;2023-04-03T07:21:57;6.07;;;1.77;;
6999;SDS011;3540;53.242;10.408;2023-04-03T07:24:23;5.43;;;1.63;;
6999;SDS011;3540;53.242;10.408;2023-04-03T07:26:49;6.30;;;1.87;;
6999;SDS011;3540;53.242;10.408;2023-04-03T07:29:16;6.70;;;1.87;;
6999;SDS011;3540;53.242;10.408;2023-04-03T07:31:42;4.03;;;1.77;;
6999;SDS011;3540;53.242;10.408;2023-04-03T07:34:09;4.40;;;1.90;;
6999;SDS011;3540;53.242;10.408;2023-04-03T07:36:35;4.67;;;1.50;;
6999;SDS011;3540;53.242;10.408;2023-04-03T07:39:01;4.77;;;1.87;;
6999;SDS011;3540;53.242;10.408;2023-04-03T07:41:26;6.43;;;1.73;;
6999;SDS011;3540;53.242;10.408;2023-04-03T07:43:53;6.27;;;1.80;;
6999;SDS011;3540;53.242;10.408;2023-04-03T07:46:19;5.83;;;2.03;;
6999;SDS011;3540;53.242;10.408;2023-04-03T07:48:45;4.90;;;1.70;;
6999;SDS011;3540;53.242;10.408;2023-04-03T07:51:11;6.10;;;2.00;;
6999;SDS011;3540;53.242;10.408;2023-04-03T07:53:38;7.33;;;3.23;;
6999;SDS011;3540;53.242;10.408;2023-04-03T07:56:03;3.27;;;1.40;;
6999;SDS011;3540;53.242;10.408;2023-04-03T07:58:29;4.13;;;1.40;;
6999;SDS011;3540;53.242;10.408;2023-04-03T08:00:55;4.80;;;1.53;;
6999;SDS011;3540;53.242;10.408;2023-04-03T08:03:21;5.10;;;2.00;;
6999;SDS011;3540;53.242;10.408;2023-04-03T08:05:48;4.13;;;1.40;;
6999;SDS011;3540;53.242;10.408;2023-04-03T08:08:19;7.93;;;1.70;;
6999;SDS011;3540;53.242;10.408;2023-04-03T08:10:52;6.23;;;1.63;;
6999;SDS011;3540;53.242;10.408;2023-04-03T08:13:19;3.90;;;1.53;;
6999;SDS011;3540;53.242;10.408;2023-04-03T08:15:46;3.43;;;1.30;;
6999;SDS011;3540;53.242;10.408;2023-04-03T08:18:12;6.83;;;1.93;;
6999;SDS011;3540;53.242;10.408;2023-04-03T08:20:38;4.73;;;1.60;;
6999;SDS011;3540;53.242;10.408;2023-04-03T08:23:05;4.70;;;1.70;;
6999;SDS011;3540;53.242;10.408;2023-04-03T08:25:31;3.43;;;1.30;;
6999;SDS011;3540;53.242;10.408;2023-04-03T08:27:58;4.07;;;1.77;;
6999;SDS011;3540;53.242;10.408;2023-04-03T08:30:23;2.70;;;1.23;;
6999;SDS011;3540;53.242;10.408;2023-04-03T08:32:49;4.97;;;1.50;;
6999;SDS011;3540;53.242;10.408;2023-04-03T08:35:15;2.87;;;1.57;;
6999;SDS011;3540;53.242;10.408;2023-04-03T08:37:40;3.93;;;1.50;;
6999;SDS011;3540;53.242;10.408;2023-04-03T08:40:07;3.27;;;1.43;;
6999;SDS011;3540;53.242;10.408;2023-04-03T08:50:41;5.30;;;1.90;;
6999;SDS011;3540;53.242;10.408;2023-04-03T08:53:32;5.40;;;1.47;;
6999;SDS011;3540;53.242;10.408;2023-04-03T08:55:58;4.37;;;1.60;;
6999;SDS011;3540;53.242;10.408;2023-04-03T08:58:45;5.00;;;1.53;;
6999;SDS011;3540;53.242;10.408;2023-04-03T09:03:46;3.53;;;1.30;;
6999;SDS011;3540;53.242;10.408;2023-04-03T09:11:27;3.17;;;1.40;;
6999;SDS011;3540;53.242;10.408;2023-04-03T09:14:11;3.17;;;1.33;;
6999;SDS011;3540;53.242;10.408;2023-04-03T09:21:49;3.17;;;1.30;;
6999;SDS011;3540;53.242;10.408;2023-04-03T09:24:15;2.77;;;1.30;;
6999;SDS011;3540;53.242;10.408;2023-04-03T09:26:48;2.77;;;1.33;;
6999;SDS011;3540;53.242;10.408;2023-04-03T09:29:21;2.57;;;1.10;;
6999;SDS011;3540;53.242;10.408;2023-04-03T09:31:59;4.77;;;1.40;;
6999;SDS011;3540;53.242;10.408;2023-04-03T09:34:27;5.27;;;1.50;;
6999;SDS011;3540;53.242;10.408;2023-04-03T09:36:54;3.50;;;1.50;;
6999;SDS011;3540;53.242;10.408;2023-04-03T09:39:21;4.60;;;1.50;;
6999;SDS011;3540;53.242;10.408;2023-04-03T09:44:42;3.80;;;1.40;;
6999;SDS011;3540;53.242;10.408;2023-04-03T09:49:44;4.93;;;1.73;;
6999;SDS011;3540;53.242;10.408;2023-04-03T09:52:18;4.00;;;1.30;;
6999;SDS011;3540;53.242;10.408;2023-04-03T09:54:51;4.37;;;1.33;;
6999;SDS011;3540;53.242;10.408;2023-04-03T09:57:17;4.27;;;1.30;;
6999;SDS011;3540;53.242;10.408;2023-04-03T10:00:05;5.83;;;1.50;;
6999;SDS011;3540;53.242;10.408;2023-04-03T10:02:38;5.07;;;1.37;;
6999;SDS011;3540;53.242;10.408;2023-04-03T10:05:23;2.53;;;1.20;;
6999;SDS011;3540;53.242;10.408;2023-04-03T10:10:42;3.50;;;1.30;;
6999;SDS011;3540;53.242;10.408;2023-04-03T10:13:11;2.03;;;1.40;;
6999;SDS011;3540;53.242;10.408;2023-04-03T10:15:51;3.57;;;1.40;;
6999;SDS011;3540;53.242;10.408;2023-04-03T10:21:24;3.27;;;1.40;;
6999;SDS011;3540;53.242;10.408;2023-04-03T10:24:21;9.13;;;4.33;;
6999;SDS011;3540;53.242;10.408;2023-04-03T10:26:57;2.07;;;1.10;;
6999;SDS011;3540;53.242;10.408;2023-04-03T10:34:44;5.07;;;1.30;;
6999;SDS011;3540;53.242;10.408;2023-04-03T10:37:18;4.00;;;1.40;;
6999;SDS011;3540;53.242;10.408;2023-04-03T10:43:06;2.43;;;1.27;;
6999;SDS011;3540;53.242;10.408;2023-04-03T10:51:21;3.40;;;1.73;;
6999;SDS011;3540;53.242;10.408;2023-04-03T10:56:40;1.90;;;1.40;;
6999;SDS011;3540;53.242;10.408;2023-04-03T11:01:56;3.03;;;1.30;;
6999;SDS011;3540;53.242;10.408;2023-04-03T11:04:44;2.30;;;1.43;;
6999;SDS011;3540;53.242;10.408;2023-04-03T11:09:42;3.57;;;1.70;;
6999;SDS011;3540;53.242;10.408;2023-04-03T11:15:11;2.40;;;1.40;;
6999;SDS011;3540;53.242;10.408;2023-04-03T11:17:43;2.73;;;1.27;;
6999;SDS011;3540;53.242;10.408;2023-04-03T11:20:19;2.03;;;1.30;;
6999;SDS011;3540;53.242;10.408;2023-04-03T11:23:00;2.83;;;1.60;;
6999;SDS011;3540;53.242;10.408;2023-04-03T11:25:32;2.43;;;1.50;;
6999;SDS011;3540;53.242;10.408;2023-04-03T11:28:03;3.03;;;1.50;;
6999;SDS011;3540;53.242;10.408;2023-04-03T11:35:45;4.40;;;1.50;;
6999;SDS011;3540;53.242;10.408;2023-04-03T11:38:24;3.40;;;1.47;;
6999;SDS011;3540;53.242;10.408;2023-04-03T11:40:54;3.37;;;1.30;;
6999;SDS011;3540;53.242;10.408;2023-04-03T11:51:00;2.57;;;1.20;;
6999;SDS011;3540;53.242;10.408;2023-04-03T11:53:36;3.80;;;1.70;;
6999;SDS011;3540;53.242;10.408;2023-04-03T12:01:42;4.50;;;1.43;;
6999;SDS011;3540;53.242;10.408;2023-04-03T12:04:10;1.77;;;1.30;;
6999;SDS011;3540;53.242;10.408;2023-04-03T12:09:22;4.27;;;1.70;;
6999;SDS011;3540;53.242;10.408;2023-04-03T12:11:51;2.17;;;1.30;;
6999;SDS011;3540;53.242;10.408;2023-04-03T12:14:17;5.33;;;1.60;;
6999;SDS011;3540;53.242;10.408;2023-04-03T12:16:44;2.60;;;1.60;;
6999;SDS011;3540;53.242;10.408;2023-04-03T12:37:08;3.77;;;1.57;;
6999;SDS011;3540;53.242;10.408;2023-04-03T12:45:20;2.37;;;1.40;;
6999;SDS011;3540;53.242;10.408;2023-04-03T12:47:51;5.33;;;1.60;;
6999;SDS011;3540;53.242;10.408;2023-04-03T12:52:54;3.20;;;1.50;;
6999;SDS011;3540;53.242;10.408;2023-04-03T12:55:21;2.53;;;1.30;;
6999;SDS011;3540;53.242;10.408;2023-04-03T12:57:47;3.27;;;1.67;;
6999;SDS011;3540;53.242;10.408;2023-04-03T13:00:46;6.23;;;1.60;;
6999;SDS011;3540;53.242;10.408;2023-04-03T13:03:06;6.70;;;1.83;;
6999;SDS011;3540;53.242;10.408;2023-04-03T13:05:40;2.80;;;1.30;;
6999;SDS011;3540;53.242;10.408;2023-04-03T13:08:11;2.30;;;1.33;;
6999;SDS011;3540;53.242;10.408;2023-04-03T13:10:47;3.20;;;1.20;;
6999;SDS011;3540;53.242;10.408;2023-04-03T13:13:22;2.30;;;1.37;;
6999;SDS011;3540;53.242;10.408;2023-04-03T13:15:48;2.03;;;1.20;;
6999;SDS011;3540;53.242;10.408;2023-04-03T13:21:15;3.13;;;1.70;;
6999;SDS011;3540;53.242;10.408;2023-04-03T13:23:46;2.90;;;1.53;;
6999;SDS011;3540;53.242;10.408;2023-04-03T13:26:18;2.93;;;1.47;;
6999;SDS011;3540;53.242;10.408;2023-04-03T13:28:46;2.00;;;1.37;;
6999;SDS011;3540;53.242;10.408;2023-04-03T13:34:29;3.83;;;1.60;;
6999;SDS011;3540;53.242;10.408;2023-04-03T13:36:32;4.47;;;1.93;;
6999;SDS011;3540;53.242;10.408;2023-04-03T13:39:26;2.57;;;1.40;;
6999;SDS011;3540;53.242;10.408;2023-04-03T13:41:55;3.43;;;1.40;;
6999;SDS011;3540;53.242;10.408;2023-04-03T13:46:48;1.87;;;1.43;;
6999;SDS011;3540;53.242;10.408;2023-04-03T13:51:45;3.47;;;1.47;;
6999;SDS011;3540;53.242;10.408;2023-04-03T13:54:22;3.13;;;1.50;;
6999;SDS011;3540;53.242;10.408;2023-04-03T13:56:55;3.20;;;1.40;;
6999;SDS011;3540;53.242;10.408;2023-04-03T13:59:35;3.83;;;1.70;;
6999;SDS011;3540;53.242;10.408;2023-04-03T14:04:27;2.73;;;1.43;;
6999;SDS011;3540;53.242;10.408;2023-04-03T14:06:54;4.33;;;1.47;;
6999;SDS011;3540;53.242;10.408;2023-04-03T14:09:21;4.40;;;1.30;;
6999;SDS011;3540;53.242;10.408;2023-04-03T14:11:48;3.20;;;1.30;;
6999;SDS011;3540;53.242;10.408;2023-04-03T14:14:21;2.90;;;1.27;;
6999;SDS011;3540;53.242;10.408;2023-04-03T14:16:56;4.80;;;1.40;;
6999;SDS011;3540;53.242;10.408;2023-04-03T14:19:29;2.50;;;1.30;;
6999;SDS011;3540;53.242;10.408;2023-04-03T14:21:57;3.80;;;1.33;;
6999;SDS011;3540;53.242;10.408;2023-04-03T14:24:25;3.47;;;1.43;;
6999;SDS011;3540;53.242;10.408;2023-04-03T14:26:53;3.43;;;2.10;;
6999;SDS011;3540;53.242;10.408;2023-04-03T14:29:20;2.27;;;1.20;;
6999;SDS011;3540;53.242;10.408;2023-04-03T14:31:46;2.47;;;1.30;;
6999;SDS011;3540;53.242;10.408;2023-04-03T14:34:13;2.23;;;1.40;;
6999;SDS011;3540;53.242;10.408;2023-04-03T14:36:40;1.67;;;1.27;;
6999;SDS011;3540;53.242;10.408;2023-04-03T14:39:09;3.10;;;1.40;;
6999;SDS011;3540;53.242;10.408;2023-04-03T14:41:40;3.37;;;1.20;;
6999;SDS011;3540;53.242;10.408;2023-04-03T14:44:07;3.53;;;1.50;;
6999;SDS011;3540;53.242;10.408;2023-04-03T14:46:34;2.40;;;1.40;;
6999;SDS011;3540;53.242;10.408;2023-04-03T14:49:02;3.63;;;1.33;;
6999;SDS011;3540;53.242;10.408;2023-04-03T14:51:32;1.43;;;1.13;;
6999;SDS011;3540;53.242;10.408;2023-04-03T14:53:58;2.20;;;1.30;;
6999;SDS011;3540;53.242;10.408;2023-04-03T14:56:25;2.10;;;1.20;;
6999;SDS011;3540;53.242;10.408;2023-04-03T14:58:59;3.10;;;1.23;;
6999;SDS011;3540;53.242;10.408;2023-04-03T15:01:26;3.23;;;1.40;;
6999;SDS011;3540;53.242;10.408;2023-04-03T15:03:53;4.83;;;1.40;;
6999;SDS011;3540;53.242;10.408;2023-04-03T15:06:18;2.17;;;1.10;;
6999;SDS011;3540;53.242;10.408;2023-04-03T15:08:45;3.67;;;1.37;;
6999;SDS011;3540;53.242;10.408;2023-04-03T15:11:12;2.97;;;1.60;;
6999;SDS011;3540;53.242;10.408;2023-04-03T15:13:38;3.07;;;1.33;;
6999;SDS011;3540;53.242;10.408;2023-04-03T15:16:05;4.13;;;1.57;;
6999;SDS011;3540;53.242;10.408;2023-04-03T15:18:37;2.83;;;1.30;;
6999;SDS011;3540;53.242;10.408;2023-04-03T15:21:04;3.87;;;2.17;;
6999;SDS011;3540;53.242;10.408;2023-04-03T15:23:30;2.20;;;1.27;;
6999;SDS011;3540;53.242;10.408;2023-04-03T15:25:56;2.80;;;1.30;;
6999;SDS011;3540;53.242;10.408;2023-04-03T15:30:57;1.30;;;1.10;;
6999;SDS011;3540;53.242;10.408;2023-04-03T15:33:23;2.70;;;1.43;;
6999;SDS011;3540;53.242;10.408;2023-04-03T15:35:49;2.63;;;1.53;;
6999;SDS011;3540;53.242;10.408;2023-04-03T15:38:15;2.17;;;1.30;;
6999;SDS011;3540;53.242;10.408;2023-04-03T15:40:40;2.17;;;1.20;;
6999;SDS011;3540;53.242;10.408;2023-04-03T15:43:07;3.03;;;1.40;;
6999;SDS011;3540;53.242;10.408;2023-04-03T15:45:33;1.60;;;1.30;;
6999;SDS011;3540;53.242;10.408;2023-04-03T15:48:01;2.07;;;1.23;;
6999;SDS011;3540;53.242;10.408;2023-04-03T15:50:28;2.20;;;1.33;;
6999;SDS011;3540;53.242;10.408;2023-04-03T15:52:53;4.33;;;1.43;;
6999;SDS011;3540;53.242;10.408;2023-04-03T15:55:24;2.13;;;1.23;;
6999;SDS011;3540;53.242;10.408;2023-04-03T15:57:51;2.23;;;1.17;;
6999;SDS011;3540;53.242;10.408;2023-04-03T16:00:17;3.43;;;1.50;;
6999;SDS011;3540;53.242;10.408;2023-04-03T16:02:44;3.63;;;1.40;;
6999;SDS011;3540;53.242;10.408;2023-04-03T16:05:11;2.37;;;1.20;;
6999;SDS011;3540;53.242;10.408;2023-04-03T16:07:40;2.33;;;1.33;;
6999;SDS011;3540;53.242;10.408;2023-04-03T16:10:07;4.80;;;1.50;;
6999;SDS011;3540;53.242;10.408;2023-04-03T16:12:34;1.80;;;1.30;;
6999;SDS011;3540;53.242;10.408;2023-04-03T16:15:00;4.07;;;1.57;;
6999;SDS011;3540;53.242;10.408;2023-04-03T16:17:26;4.13;;;1.60;;
6999;SDS011;3540;53.242;10.408;2023-04-03T16:19:53;3.43;;;1.57;;
6999;SDS011;3540;53.242;10.408;2023-04-03T16:22:20;3.50;;;1.37;;
6999;SDS011;3540;53.242;10.408;2023-04-03T16:24:48;3.80;;;1.60;;
6999;SDS011;3540;53.242;10.408;2023-04-03T16:27:14;4.90;;;1.60;;
6999;SDS011;3540;53.242;10.408;2023-04-03T16:29:40;3.70;;;1.40;;
6999;SDS011;3540;53.242;10.408;2023-04-03T16:32:05;3.13;;;1.43;;
6999;SDS011;3540;53.242;10.408;2023-04-03T16:34:31;4.10;;;1.40;;
6999;SDS011;3540;53.242;10.408;2023-04-03T16:36:57;4.03;;;1.30;;
6999;SDS011;3540;53.242;10.408;2023-04-03T16:39:23;6.07;;;2.07;;
6999;SDS011;3540;53.242;10.408;2023-04-03T16:41:49;4.60;;;1.77;;
6999;SDS011;3540;53.242;10.408;2023-04-03T16:44:15;6.93;;;2.50;;
6999;SDS011;3540;53.242;10.408;2023-04-03T16:46:40;3.03;;;1.63;;
6999;SDS011;3540;53.242;10.408;2023-04-03T16:49:06;4.07;;;1.53;;
6999;SDS011;3540;53.242;10.408;2023-04-03T16:51:31;4.50;;;1.43;;
6999;SDS011;3540;53.242;10.408;2023-04-03T16:53:57;3.10;;;1.50;;
6999;SDS011;3540;53.242;10.408;2023-04-03T16:56:23;3.33;;;1.43;;
6999;SDS011;3540;53.242;10.408;2023-04-03T16:58:51;3.63;;;1.63;;
6999;SDS011;3540;53.242;10.408;2023-04-03T17:01:18;3.63;;;1.43;;
6999;SDS011;3540;53.242;10.408;2023-04-03T17:03:45;8.53;;;1.90;;
6999;SDS011;3540;53.242;10.408;2023-04-03T17:06:11;3.60;;;1.50;;
6999;SDS011;3540;53.242;10.408;2023-04-03T17:08:45;4.20;;;1.47;;
6999;SDS011;3540;53.242;10.408;2023-04-03T17:11:12;5.43;;;1.70;;
6999;SDS011;3540;53.242;10.408;2023-04-03T17:13:38;4.40;;;1.50;;